Terminal Aerodrome Forecast
Issued by NWS Salt Lake City, UT

Home | Current Version | Previous Version | Text Only | Print | Product List | Glossary On
Versions: 1 2 3 4 5 6 7 8 9 10 11 12 13 14 15 16 17 18 19 20 21 22 23 24 25 26 27 28
000
FTUS45 KSLC 222335
TAFSLC
TAF
KSLC 222335Z 2300/2406 33006KT P6SM SCT070
     FM230300 16006KT P6SM SCT050 BKN070
     FM231500 34008KT P6SM FEW050 SCT070=

USA.gov is the U.S. government's official web portal to all federal, state and local government web resources and services.